AIZ72 LGRP-LLBG
Flight info
| Callsign | AIZ72 |
|---|---|
| Flight time | N/A |
| Altitude | 37000 |
| Route | NILAS UL609 ALKIS DCT MAROS DCT APLON L609 ZUKKO |
| Aircraft | E195/M-SDGIJ1LORVWY/EB1 |
Departure
| Time | 2026-05-04 18:02 |
|---|---|
| Airport | Rhodes International Airport "Diagoras" (LGRP) |
Arrival
| Time | N/A |
|---|---|
| Airport | Ben Gurion International Airport (LLBG) |
| Time | Latitude | Longitude | Altitude | Speed | Heading |
|---|---|---|---|---|---|
| 2026-05-04 17:56 | 36.40445 | 28.09158 | 28 ft | 2 kts | 70° |
| 2026-05-04 17:57 | 36.40454 | 28.09187 | 28 ft | 5 kts | 70° |
| 2026-05-04 17:57 | 36.40467 | 28.09233 | 28 ft | 7 kts | 70° |
| 2026-05-04 17:57 | 36.40487 | 28.09295 | 28 ft | 9 kts | 65° |
| 2026-05-04 17:57 | 36.40527 | 28.09360 | 28 ft | 10 kts | 43° |
| 2026-05-04 17:58 | 36.40586 | 28.09423 | 28 ft | 12 kts | 53° |
| 2026-05-04 17:58 | 36.40622 | 28.09529 | 25 ft | 15 kts | 70° |
| 2026-05-04 17:58 | 36.40661 | 28.09660 | 26 ft | 17 kts | 70° |
| 2026-05-04 17:58 | 36.40705 | 28.09813 | 23 ft | 20 kts | 70° |
| 2026-05-04 17:59 | 36.40756 | 28.09984 | 22 ft | 22 kts | 70° |
| 2026-05-04 17:59 | 36.40810 | 28.10168 | 18 ft | 23 kts | 72° |
| 2026-05-04 17:59 | 36.40906 | 28.10433 | 25 ft | 11 kts | 15° |
| 2026-05-04 18:00 | 36.40951 | 28.10420 | 21 ft | 0 kts | 335° |
| 2026-05-04 18:00 | 36.40958 | 28.10416 | 24 ft | 3 kts | 335° |
| 2026-05-04 18:01 | 36.40982 | 28.10399 | 21 ft | 5 kts | 324° |
| 2026-05-04 18:01 | 36.41011 | 28.10362 | 22 ft | 6 kts | 317° |
| 2026-05-04 18:01 | 36.41033 | 28.10322 | 22 ft | 5 kts | 268° |
| 2026-05-04 18:02 | 36.40975 | 28.10118 | 22 ft | 60 kts | 250° |
| 2026-05-04 18:02 | 36.40746 | 28.09327 | 29 ft | 133 kts | 250° |
| 2026-05-04 18:02 | 36.40370 | 28.08010 | 248 ft | 182 kts | 257° |
| 2026-05-04 18:02 | 36.40125 | 28.06390 | 1176 ft | 194 kts | 264° |
| 2026-05-04 18:03 | 36.39897 | 28.04701 | 2294 ft | 198 kts | 263° |
| 2026-05-04 18:03 | 36.39675 | 28.03012 | 3488 ft | 202 kts | 268° |
| 2026-05-04 18:03 | 36.39512 | 28.01235 | 4206 ft | 209 kts | 271° |
| 2026-05-04 18:03 | 36.39380 | 27.99360 | 4360 ft | 225 kts | 271° |
| 2026-05-04 18:04 | 36.39217 | 27.97381 | 4762 ft | 235 kts | 270° |
| 2026-05-04 18:04 | 36.39049 | 27.95311 | 5244 ft | 249 kts | 270° |
| 2026-05-04 18:04 | 36.37413 | 27.91405 | 5020 ft | 280 kts | 215° |
| 2026-05-04 18:05 | 36.35489 | 27.90838 | 5012 ft | 295 kts | 179° |
| 2026-05-04 18:05 | 36.33548 | 27.91677 | 5050 ft | 299 kts | 143° |
| 2026-05-04 18:05 | 36.32259 | 27.93643 | 5083 ft | 294 kts | 107° |
| 2026-05-04 18:05 | 36.31937 | 27.96097 | 5618 ft | 289 kts | 87° |
| 2026-05-04 18:06 | 36.31332 | 28.01057 | 7453 ft | 298 kts | 108° |
| 2026-05-04 18:06 | 36.30410 | 28.03330 | 8336 ft | 300 kts | 117° |
| 2026-05-04 18:06 | 36.29333 | 28.05558 | 9140 ft | 303 kts | 118° |
| 2026-05-04 18:07 | 36.28231 | 28.07799 | 9937 ft | 306 kts | 118° |
| 2026-05-04 18:07 | 36.27109 | 28.10109 | 10461 ft | 321 kts | 118° |
| 2026-05-04 18:07 | 36.25941 | 28.12553 | 10946 ft | 335 kts | 117° |
| 2026-05-04 18:07 | 36.24784 | 28.15086 | 11689 ft | 340 kts | 116° |
| 2026-05-04 18:08 | 36.23650 | 28.17676 | 12465 ft | 344 kts | 116° |
| 2026-05-04 18:08 | 36.22505 | 28.20305 | 13221 ft | 349 kts | 116° |
| 2026-05-04 18:08 | 36.21358 | 28.22977 | 14017 ft | 354 kts | 115° |
| 2026-05-04 18:08 | 36.20220 | 28.25683 | 14754 ft | 360 kts | 115° |
| 2026-05-04 18:09 | 36.17848 | 28.31290 | 16286 ft | 370 kts | 114° |
| 2026-05-04 18:09 | 36.15630 | 28.37129 | 17672 ft | 379 kts | 112° |
| 2026-05-04 18:10 | 36.14535 | 28.40125 | 18322 ft | 385 kts | 112° |
| 2026-05-04 18:10 | 36.13451 | 28.43168 | 19039 ft | 388 kts | 112° |
| 2026-05-04 18:10 | 36.12158 | 28.46123 | 19724 ft | 393 kts | 122° |
| 2026-05-04 18:10 | 36.10568 | 28.48881 | 20417 ft | 396 kts | 126° |
| 2026-05-04 18:11 | 36.08896 | 28.51606 | 21061 ft | 399 kts | 126° |
| 2026-05-04 18:11 | 36.07231 | 28.54372 | 21646 ft | 402 kts | 126° |
| 2026-05-04 18:11 | 36.05597 | 28.57131 | 22228 ft | 405 kts | 126° |
| 2026-05-04 18:11 | 36.03935 | 28.59954 | 22802 ft | 407 kts | 126° |
| 2026-05-04 18:12 | 36.02266 | 28.62791 | 23357 ft | 410 kts | 126° |
| 2026-05-04 18:12 | 36.00589 | 28.65650 | 23927 ft | 412 kts | 126° |
| 2026-05-04 18:12 | 35.98892 | 28.68532 | 24451 ft | 417 kts | 126° |
| 2026-05-04 18:12 | 35.97178 | 28.71441 | 24944 ft | 422 kts | 126° |
| 2026-05-04 18:13 | 35.95440 | 28.74388 | 25396 ft | 426 kts | 125° |
| 2026-05-04 18:13 | 35.93693 | 28.77350 | 25935 ft | 428 kts | 126° |
| 2026-05-04 18:13 | 35.90161 | 28.83332 | 26876 ft | 434 kts | 126° |
| 2026-05-04 18:14 | 35.88376 | 28.86351 | 27329 ft | 437 kts | 126° |
| 2026-05-04 18:14 | 35.86581 | 28.89382 | 27779 ft | 439 kts | 126° |
| 2026-05-04 18:14 | 35.84774 | 28.92433 | 28173 ft | 442 kts | 126° |
| 2026-05-04 18:15 | 35.81125 | 28.98583 | 28997 ft | 446 kts | 126° |
| 2026-05-04 18:15 | 35.77481 | 29.04721 | 30058 ft | 442 kts | 127° |
| 2026-05-04 18:15 | 35.75665 | 29.07775 | 30473 ft | 442 kts | 127° |
| 2026-05-04 18:16 | 35.73850 | 29.10823 | 30910 ft | 442 kts | 127° |
| 2026-05-04 18:16 | 35.72032 | 29.13871 | 31331 ft | 441 kts | 127° |
| 2026-05-04 18:16 | 35.70217 | 29.16912 | 31743 ft | 441 kts | 127° |
| 2026-05-04 18:17 | 35.66579 | 29.22998 | 32401 ft | 442 kts | 127° |
| 2026-05-04 18:17 | 35.64762 | 29.26042 | 32755 ft | 441 kts | 128° |
| 2026-05-04 18:17 | 35.61126 | 29.32108 | 33427 ft | 440 kts | 128° |
| 2026-05-04 18:18 | 35.59312 | 29.35132 | 33702 ft | 440 kts | 128° |
| 2026-05-04 18:18 | 35.57493 | 29.38165 | 33987 ft | 440 kts | 128° |
| 2026-05-04 18:18 | 35.55678 | 29.41187 | 34274 ft | 439 kts | 128° |
| 2026-05-04 18:18 | 35.53864 | 29.44201 | 34515 ft | 440 kts | 128° |
| 2026-05-04 18:19 | 35.50225 | 29.50250 | 34961 ft | 441 kts | 128° |
| 2026-05-04 18:19 | 35.48399 | 29.53279 | 35149 ft | 442 kts | 128° |
| 2026-05-04 18:19 | 35.46571 | 29.56305 | 35372 ft | 442 kts | 129° |
| 2026-05-04 18:20 | 35.44743 | 29.59327 | 35587 ft | 441 kts | 129° |
| 2026-05-04 18:20 | 35.42912 | 29.62356 | 35751 ft | 442 kts | 129° |
| 2026-05-04 18:20 | 35.41106 | 29.65344 | 35928 ft | 443 kts | 129° |
| 2026-05-04 18:20 | 35.39269 | 29.68381 | 36083 ft | 443 kts | 129° |
| 2026-05-04 18:21 | 35.37435 | 29.71416 | 36251 ft | 443 kts | 129° |
| 2026-05-04 18:21 | 35.35596 | 29.74448 | 36393 ft | 444 kts | 129° |
| 2026-05-04 18:21 | 35.33749 | 29.77488 | 36530 ft | 445 kts | 129° |
| 2026-05-04 18:21 | 35.31899 | 29.80533 | 36705 ft | 445 kts | 129° |
| 2026-05-04 18:22 | 35.30065 | 29.83553 | 37078 ft | 435 kts | 129° |
| 2026-05-04 18:22 | 35.28246 | 29.86539 | 37118 ft | 440 kts | 129° |
| 2026-05-04 18:22 | 35.24531 | 29.92621 | 37018 ft | 454 kts | 129° |
| 2026-05-04 18:23 | 35.20708 | 29.98890 | 36979 ft | 464 kts | 129° |
| 2026-05-04 18:23 | 35.16726 | 30.05147 | 36976 ft | 468 kts | 132° |
| 2026-05-04 18:24 | 35.12640 | 30.11354 | 36950 ft | 469 kts | 132° |
| 2026-05-04 18:24 | 35.08568 | 30.17565 | 36955 ft | 468 kts | 132° |
| 2026-05-04 18:25 | 35.04494 | 30.23783 | 36965 ft | 469 kts | 132° |
| 2026-05-04 18:25 | 35.00409 | 30.30003 | 36975 ft | 470 kts | 132° |
| 2026-05-04 18:26 | 34.96315 | 30.36231 | 36972 ft | 471 kts | 133° |
| 2026-05-04 18:26 | 34.92214 | 30.42461 | 36975 ft | 471 kts | 133° |
| 2026-05-04 18:27 | 34.88108 | 30.48690 | 36961 ft | 471 kts | 133° |
| 2026-05-04 18:27 | 34.83996 | 30.54911 | 36977 ft | 472 kts | 133° |
| 2026-05-04 18:28 | 34.79901 | 30.61098 | 36972 ft | 473 kts | 133° |
| 2026-05-04 18:28 | 34.75777 | 30.67319 | 36969 ft | 473 kts | 133° |
| 2026-05-04 18:29 | 34.71646 | 30.73543 | 36970 ft | 473 kts | 133° |
| 2026-05-04 18:29 | 34.67506 | 30.79761 | 36952 ft | 473 kts | 134° |
| 2026-05-04 18:30 | 34.61295 | 30.89068 | 36943 ft | 473 kts | 133° |
| 2026-05-04 18:31 | 34.57296 | 30.95434 | 36944 ft | 475 kts | 131° |
| 2026-05-04 18:31 | 34.53325 | 31.01819 | 36962 ft | 475 kts | 132° |
| 2026-05-04 18:32 | 34.49330 | 31.08193 | 36962 ft | 474 kts | 132° |
| 2026-05-04 18:32 | 34.45329 | 31.14553 | 36956 ft | 475 kts | 132° |
| 2026-05-04 18:33 | 34.41327 | 31.20905 | 36953 ft | 474 kts | 133° |
| 2026-05-04 18:33 | 34.37315 | 31.27255 | 36954 ft | 474 kts | 133° |
| 2026-05-04 18:34 | 34.33302 | 31.33600 | 36955 ft | 475 kts | 133° |
| 2026-05-04 18:34 | 34.29278 | 31.39952 | 36952 ft | 475 kts | 133° |
| 2026-05-04 18:35 | 34.25253 | 31.46293 | 36954 ft | 476 kts | 133° |
| 2026-05-04 18:35 | 34.21220 | 31.52636 | 36954 ft | 476 kts | 133° |
| 2026-05-04 18:36 | 34.17181 | 31.58971 | 36954 ft | 476 kts | 134° |
| 2026-05-04 18:36 | 34.13172 | 31.65261 | 36953 ft | 476 kts | 134° |
| 2026-05-04 18:37 | 34.09125 | 31.71591 | 36946 ft | 477 kts | 134° |
| 2026-05-04 18:37 | 34.05074 | 31.77918 | 36944 ft | 476 kts | 134° |
| 2026-05-04 18:38 | 34.01021 | 31.84234 | 36949 ft | 476 kts | 134° |
| 2026-05-04 18:38 | 33.96957 | 31.90546 | 36957 ft | 477 kts | 134° |
| 2026-05-04 18:39 | 33.92898 | 31.96862 | 36954 ft | 477 kts | 134° |
| 2026-05-04 18:39 | 33.88831 | 32.03172 | 36953 ft | 477 kts | 134° |
| 2026-05-04 18:40 | 33.84745 | 32.09453 | 36956 ft | 476 kts | 135° |
| 2026-05-04 18:40 | 33.80582 | 32.15631 | 36954 ft | 475 kts | 136° |
| 2026-05-04 18:41 | 33.76423 | 32.21821 | 36953 ft | 476 kts | 136° |
| 2026-05-04 18:41 | 33.72974 | 32.26958 | 36953 ft | 475 kts | 136° |
| 2026-05-04 18:42 | 33.68832 | 32.33140 | 36952 ft | 475 kts | 136° |
| 2026-05-04 18:42 | 33.64680 | 32.39307 | 36982 ft | 475 kts | 136° |
| 2026-05-04 18:43 | 33.60521 | 32.45471 | 36944 ft | 475 kts | 136° |
| 2026-05-04 18:43 | 33.56372 | 32.51613 | 36954 ft | 474 kts | 136° |
| 2026-05-04 18:44 | 33.52215 | 32.57755 | 36968 ft | 474 kts | 136° |
| 2026-05-04 18:44 | 33.48063 | 32.63884 | 36962 ft | 474 kts | 136° |
| 2026-05-04 18:45 | 33.43906 | 32.70002 | 36964 ft | 474 kts | 136° |
| 2026-05-04 18:45 | 33.39770 | 32.76085 | 36527 ft | 464 kts | 137° |
| 2026-05-04 18:45 | 33.37787 | 32.79020 | 36652 ft | 442 kts | 137° |
| 2026-05-04 18:46 | 33.35892 | 32.81818 | 36583 ft | 427 kts | 138° |
| 2026-05-04 18:46 | 33.34025 | 32.84552 | 36180 ft | 421 kts | 139° |
| 2026-05-04 18:46 | 33.32165 | 32.87263 | 35549 ft | 423 kts | 139° |
| 2026-05-04 18:46 | 33.30303 | 32.89977 | 35001 ft | 422 kts | 139° |
| 2026-05-04 18:47 | 33.28449 | 32.92690 | 34416 ft | 422 kts | 139° |
| 2026-05-04 18:47 | 33.26591 | 32.95404 | 33870 ft | 421 kts | 139° |
| 2026-05-04 18:47 | 33.24738 | 32.98110 | 33297 ft | 421 kts | 139° |
| 2026-05-04 18:47 | 33.22885 | 33.00814 | 32748 ft | 420 kts | 139° |
| 2026-05-04 18:48 | 33.21039 | 33.03504 | 32187 ft | 419 kts | 139° |
| 2026-05-04 18:48 | 33.19195 | 33.06194 | 31634 ft | 419 kts | 139° |
| 2026-05-04 18:48 | 33.17415 | 33.08900 | 31083 ft | 420 kts | 137° |
| 2026-05-04 18:48 | 33.15642 | 33.11662 | 30535 ft | 419 kts | 137° |
| 2026-05-04 18:49 | 33.13879 | 33.14427 | 29969 ft | 418 kts | 137° |
| 2026-05-04 18:49 | 33.12110 | 33.17166 | 29424 ft | 416 kts | 137° |
| 2026-05-04 18:49 | 33.10335 | 33.19891 | 28874 ft | 415 kts | 137° |
| 2026-05-04 18:49 | 33.08567 | 33.22602 | 28325 ft | 414 kts | 137° |
| 2026-05-04 18:50 | 33.06806 | 33.25314 | 27769 ft | 413 kts | 136° |
| 2026-05-04 18:50 | 33.05051 | 33.28013 | 27238 ft | 411 kts | 136° |
| 2026-05-04 18:50 | 33.03298 | 33.30706 | 26667 ft | 410 kts | 136° |
| 2026-05-04 18:50 | 33.01557 | 33.33380 | 26148 ft | 408 kts | 136° |
| 2026-05-04 18:51 | 32.99820 | 33.36043 | 25598 ft | 406 kts | 136° |
| 2026-05-04 18:51 | 32.98092 | 33.38690 | 25068 ft | 404 kts | 136° |
| 2026-05-04 18:51 | 32.96371 | 33.41321 | 24535 ft | 402 kts | 136° |
| 2026-05-04 18:51 | 32.94655 | 33.43943 | 24001 ft | 400 kts | 135° |
| 2026-05-04 18:52 | 32.92948 | 33.46545 | 23471 ft | 398 kts | 135° |
| 2026-05-04 18:52 | 32.91250 | 33.49137 | 22945 ft | 396 kts | 135° |
| 2026-05-04 18:52 | 32.89564 | 33.51711 | 22429 ft | 393 kts | 135° |
| 2026-05-04 18:52 | 32.87913 | 33.54240 | 21879 ft | 379 kts | 135° |
| 2026-05-04 18:53 | 32.86332 | 33.56662 | 21411 ft | 364 kts | 135° |
| 2026-05-04 18:53 | 32.84806 | 33.58989 | 20939 ft | 350 kts | 136° |
| 2026-05-04 18:53 | 32.83330 | 33.61229 | 20485 ft | 338 kts | 136° |
| 2026-05-04 18:53 | 32.81901 | 33.63383 | 20040 ft | 326 kts | 139° |
| 2026-05-04 18:54 | 32.80401 | 33.65302 | 19648 ft | 309 kts | 144° |
| 2026-05-04 18:54 | 32.78885 | 33.67074 | 19232 ft | 304 kts | 144° |
| 2026-05-04 18:54 | 32.77392 | 33.68844 | 18863 ft | 304 kts | 144° |
| 2026-05-04 18:54 | 32.75895 | 33.70651 | 18494 ft | 311 kts | 143° |
| 2026-05-04 18:55 | 32.74389 | 33.72491 | 18062 ft | 317 kts | 142° |
| 2026-05-04 18:55 | 32.71323 | 33.76277 | 17195 ft | 319 kts | 142° |
| 2026-05-04 18:55 | 32.69786 | 33.78182 | 16775 ft | 319 kts | 142° |
| 2026-05-04 18:56 | 32.68245 | 33.80085 | 16351 ft | 320 kts | 141° |
| 2026-05-04 18:56 | 32.66701 | 33.81990 | 15892 ft | 321 kts | 141° |
| 2026-05-04 18:56 | 32.65147 | 33.83905 | 15452 ft | 322 kts | 141° |
| 2026-05-04 18:56 | 32.63594 | 33.85815 | 15029 ft | 322 kts | 141° |
| 2026-05-04 18:57 | 32.62043 | 33.87727 | 14600 ft | 321 kts | 141° |
| 2026-05-04 18:57 | 32.60495 | 33.89635 | 14176 ft | 321 kts | 141° |
| 2026-05-04 18:57 | 32.58951 | 33.91536 | 13757 ft | 320 kts | 140° |
| 2026-05-04 18:57 | 32.57407 | 33.93437 | 13326 ft | 320 kts | 140° |
| 2026-05-04 18:58 | 32.55866 | 33.95331 | 12930 ft | 318 kts | 140° |
| 2026-05-04 18:58 | 32.54347 | 33.97212 | 12547 ft | 316 kts | 139° |
| 2026-05-04 18:58 | 32.52845 | 33.99092 | 12193 ft | 312 kts | 139° |
| 2026-05-04 18:58 | 32.51358 | 34.00955 | 11836 ft | 309 kts | 139° |
| 2026-05-04 18:59 | 32.49883 | 34.02795 | 11482 ft | 307 kts | 139° |
| 2026-05-04 18:59 | 32.48418 | 34.04616 | 11135 ft | 304 kts | 139° |
| 2026-05-04 18:59 | 32.46965 | 34.06424 | 10786 ft | 302 kts | 139° |
| 2026-05-04 18:59 | 32.45524 | 34.08218 | 10440 ft | 299 kts | 139° |
| 2026-05-04 19:00 | 32.44099 | 34.09992 | 10164 ft | 294 kts | 139° |
| 2026-05-04 19:00 | 32.42860 | 34.11890 | 9962 ft | 292 kts | 120° |
| 2026-05-04 19:00 | 32.42236 | 34.14160 | 9790 ft | 288 kts | 104° |
| 2026-05-04 19:00 | 32.41884 | 34.16449 | 9683 ft | 278 kts | 102° |
| 2026-05-04 19:01 | 32.41537 | 34.18656 | 9592 ft | 268 kts | 104° |
| 2026-05-04 19:01 | 32.41167 | 34.20800 | 9508 ft | 264 kts | 104° |
| 2026-05-04 19:01 | 32.40792 | 34.22931 | 9441 ft | 266 kts | 104° |
| 2026-05-04 19:01 | 32.40408 | 34.25090 | 9323 ft | 268 kts | 104° |
| 2026-05-04 19:02 | 32.40020 | 34.27239 | 9222 ft | 267 kts | 105° |
| 2026-05-04 19:02 | 32.39625 | 34.29387 | 9127 ft | 266 kts | 105° |
| 2026-05-04 19:02 | 32.39239 | 34.31549 | 8887 ft | 268 kts | 104° |
| 2026-05-04 19:02 | 32.38867 | 34.33676 | 8812 ft | 262 kts | 104° |
| 2026-05-04 19:03 | 32.38486 | 34.35775 | 8737 ft | 262 kts | 105° |
| 2026-05-04 19:03 | 32.38102 | 34.37887 | 8668 ft | 262 kts | 104° |
| 2026-05-04 19:03 | 32.37736 | 34.39891 | 8602 ft | 263 kts | 104° |
| 2026-05-04 19:03 | 32.37349 | 34.42035 | 8476 ft | 264 kts | 104° |
| 2026-05-04 19:04 | 32.36976 | 34.44127 | 8359 ft | 263 kts | 104° |
| 2026-05-04 19:04 | 32.36598 | 34.46233 | 8250 ft | 261 kts | 104° |
| 2026-05-04 19:04 | 32.36208 | 34.48327 | 8145 ft | 260 kts | 105° |
| 2026-05-04 19:04 | 32.35814 | 34.50419 | 8045 ft | 260 kts | 104° |
| 2026-05-04 19:05 | 32.35265 | 34.52439 | 7968 ft | 257 kts | 122° |
| 2026-05-04 19:05 | 32.34210 | 34.54102 | 7888 ft | 251 kts | 137° |
| 2026-05-04 19:05 | 32.32974 | 34.55557 | 7778 ft | 250 kts | 141° |
| 2026-05-04 19:05 | 32.31729 | 34.56986 | 7699 ft | 249 kts | 140° |
| 2026-05-04 19:06 | 32.30513 | 34.58445 | 7625 ft | 249 kts | 139° |
| 2026-05-04 19:06 | 32.29304 | 34.59916 | 7543 ft | 250 kts | 139° |
| 2026-05-04 19:06 | 32.28097 | 34.61390 | 7461 ft | 250 kts | 139° |
| 2026-05-04 19:06 | 32.26892 | 34.62865 | 7385 ft | 249 kts | 138° |
| 2026-05-04 19:07 | 32.25689 | 34.64344 | 7303 ft | 249 kts | 139° |
| 2026-05-04 19:07 | 32.24490 | 34.65820 | 7224 ft | 250 kts | 138° |
| 2026-05-04 19:07 | 32.23290 | 34.67301 | 7150 ft | 248 kts | 139° |
| 2026-05-04 19:07 | 32.22073 | 34.68784 | 6826 ft | 257 kts | 139° |
| 2026-05-04 19:08 | 32.20832 | 34.70301 | 6557 ft | 255 kts | 138° |
| 2026-05-04 19:08 | 32.19610 | 34.71798 | 6324 ft | 252 kts | 138° |
| 2026-05-04 19:08 | 32.18388 | 34.73293 | 5928 ft | 255 kts | 138° |
| 2026-05-04 19:08 | 32.17133 | 34.74819 | 5487 ft | 261 kts | 138° |
| 2026-05-04 19:09 | 32.15915 | 34.76358 | 5368 ft | 253 kts | 131° |
| 2026-05-04 19:09 | 32.15028 | 34.78114 | 5268 ft | 246 kts | 119° |
| 2026-05-04 19:09 | 32.14327 | 34.79933 | 5237 ft | 241 kts | 116° |
| 2026-05-04 19:09 | 32.13644 | 34.81740 | 5334 ft | 242 kts | 117° |
| 2026-05-04 19:10 | 32.12932 | 34.83553 | 5442 ft | 245 kts | 118° |
| 2026-05-04 19:10 | 32.12210 | 34.85385 | 5543 ft | 247 kts | 118° |
| 2026-05-04 19:10 | 32.11474 | 34.87220 | 5643 ft | 248 kts | 118° |
| 2026-05-04 19:10 | 32.10748 | 34.89066 | 5748 ft | 249 kts | 117° |
| 2026-05-04 19:11 | 32.10016 | 34.90920 | 5852 ft | 250 kts | 118° |